sensor_id;sensor_type;location;lat;lon;timestamp;temperature;humidity
55121;DHT22;41019;48.512;9.036;2023-05-19T00:01:41;13.70;80.20
55121;DHT22;41019;48.512;9.036;2023-05-19T00:04:09;13.70;79.80
55121;DHT22;41019;48.512;9.036;2023-05-19T00:06:37;13.60;79.90
55121;DHT22;41019;48.512;9.036;2023-05-19T00:09:03;13.70;79.80
55121;DHT22;41019;48.512;9.036;2023-05-19T00:11:30;13.70;80.20
55121;DHT22;41019;48.512;9.036;2023-05-19T00:13:58;13.70;80.30
55121;DHT22;41019;48.512;9.036;2023-05-19T00:16:26;13.70;80.70
55121;DHT22;41019;48.512;9.036;2023-05-19T00:18:52;13.60;79.10
55121;DHT22;41019;48.512;9.036;2023-05-19T00:21:19;13.60;78.30
55121;DHT22;41019;48.512;9.036;2023-05-19T00:23:45;13.60;78.50
55121;DHT22;41019;48.512;9.036;2023-05-19T00:26:11;13.60;78.10
55121;DHT22;41019;48.512;9.036;2023-05-19T00:28:42;13.60;77.90
55121;DHT22;41019;48.512;9.036;2023-05-19T00:31:08;13.60;78.00
55121;DHT22;41019;48.512;9.036;2023-05-19T00:33:33;13.60;78.20
55121;DHT22;41019;48.512;9.036;2023-05-19T00:36:03;13.60;78.30
55121;DHT22;41019;48.512;9.036;2023-05-19T00:38:33;13.60;78.40
55121;DHT22;41019;48.512;9.036;2023-05-19T00:41:01;13.60;78.80
55121;DHT22;41019;48.512;9.036;2023-05-19T00:43:28;13.70;79.10
55121;DHT22;41019;48.512;9.036;2023-05-19T00:45:56;13.60;79.20
55121;DHT22;41019;48.512;9.036;2023-05-19T00:48:23;13.60;78.90
55121;DHT22;41019;48.512;9.036;2023-05-19T00:50:50;13.60;79.10
55121;DHT22;41019;48.512;9.036;2023-05-19T00:53:18;13.60;79.40
55121;DHT22;41019;48.512;9.036;2023-05-19T00:55:44;13.60;80.00
55121;DHT22;41019;48.512;9.036;2023-05-19T00:58:11;13.50;80.20
55121;DHT22;41019;48.512;9.036;2023-05-19T01:00:38;13.60;80.50
55121;DHT22;41019;48.512;9.036;2023-05-19T01:03:05;13.60;81.40
55121;DHT22;41019;48.512;9.036;2023-05-19T01:05:42;13.50;80.50
55121;DHT22;41019;48.512;9.036;2023-05-19T01:08:12;13.50;80.60
55121;DHT22;41019;48.512;9.036;2023-05-19T01:10:38;13.50;80.60
55121;DHT22;41019;48.512;9.036;2023-05-19T01:13:06;13.50;80.80
55121;DHT22;41019;48.512;9.036;2023-05-19T01:15:49;13.50;81.30
55121;DHT22;41019;48.512;9.036;2023-05-19T01:18:25;13.50;81.40
55121;DHT22;41019;48.512;9.036;2023-05-19T01:21:15;13.40;81.60
55121;DHT22;41019;48.512;9.036;2023-05-19T01:24:04;13.40;81.80
55121;DHT22;41019;48.512;9.036;2023-05-19T01:26:51;13.40;82.00
55121;DHT22;41019;48.512;9.036;2023-05-19T01:29:51;13.40;80.90
55121;DHT22;41019;48.512;9.036;2023-05-19T01:32:24;13.40;81.50
55121;DHT22;41019;48.512;9.036;2023-05-19T01:34:53;13.40;80.80
55121;DHT22;41019;48.512;9.036;2023-05-19T01:37:20;13.40;80.70
55121;DHT22;41019;48.512;9.036;2023-05-19T01:39:47;13.30;80.10
55121;DHT22;41019;48.512;9.036;2023-05-19T01:42:14;13.30;80.20
55121;DHT22;41019;48.512;9.036;2023-05-19T01:44:41;13.40;80.30
55121;DHT22;41019;48.512;9.036;2023-05-19T01:47:08;13.40;80.30
55121;DHT22;41019;48.512;9.036;2023-05-19T01:49:34;13.30;80.10
55121;DHT22;41019;48.512;9.036;2023-05-19T01:52:01;13.40;80.30
55121;DHT22;41019;48.512;9.036;2023-05-19T01:54:27;13.40;80.10
55121;DHT22;41019;48.512;9.036;2023-05-19T01:57:13;13.30;80.30
55121;DHT22;41019;48.512;9.036;2023-05-19T01:59:54;13.30;80.50
55121;DHT22;41019;48.512;9.036;2023-05-19T02:02:29;13.30;80.80
55121;DHT22;41019;48.512;9.036;2023-05-19T02:05:12;13.30;81.00
55121;DHT22;41019;48.512;9.036;2023-05-19T02:07:48;13.30;81.20
55121;DHT22;41019;48.512;9.036;2023-05-19T02:10:28;13.30;81.40
55121;DHT22;41019;48.512;9.036;2023-05-19T02:13:03;13.30;81.10
55121;DHT22;41019;48.512;9.036;2023-05-19T02:15:40;13.30;80.90
55121;DHT22;41019;48.512;9.036;2023-05-19T02:18:10;13.30;81.10
55121;DHT22;41019;48.512;9.036;2023-05-19T02:20:37;13.20;80.90
55121;DHT22;41019;48.512;9.036;2023-05-19T02:23:05;13.20;80.90
55121;DHT22;41019;48.512;9.036;2023-05-19T02:25:31;13.20;81.10
55121;DHT22;41019;48.512;9.036;2023-05-19T02:27:58;13.20;81.20
55121;DHT22;41019;48.512;9.036;2023-05-19T02:30:24;13.20;81.50
55121;DHT22;41019;48.512;9.036;2023-05-19T02:32:50;13.20;81.80
55121;DHT22;41019;48.512;9.036;2023-05-19T02:35:19;13.20;81.80
55121;DHT22;41019;48.512;9.036;2023-05-19T02:37:45;13.10;82.20
55121;DHT22;41019;48.512;9.036;2023-05-19T02:40:11;13.10;82.40
55121;DHT22;41019;48.512;9.036;2023-05-19T02:42:36;13.10;82.70
55121;DHT22;41019;48.512;9.036;2023-05-19T02:45:03;13.10;82.80
55121;DHT22;41019;48.512;9.036;2023-05-19T02:47:29;13.10;83.10
55121;DHT22;41019;48.512;9.036;2023-05-19T02:49:54;13.00;83.00
55121;DHT22;41019;48.512;9.036;2023-05-19T02:52:20;13.00;83.20
55121;DHT22;41019;48.512;9.036;2023-05-19T02:54:46;13.00;83.00
55121;DHT22;41019;48.512;9.036;2023-05-19T02:57:12;13.00;83.30
55121;DHT22;41019;48.512;9.036;2023-05-19T02:59:38;13.00;83.40
55121;DHT22;41019;48.512;9.036;2023-05-19T03:02:04;13.00;83.30
55121;DHT22;41019;48.512;9.036;2023-05-19T03:04:29;13.00;83.50
55121;DHT22;41019;48.512;9.036;2023-05-19T03:06:55;13.00;83.70
55121;DHT22;41019;48.512;9.036;2023-05-19T03:09:22;13.00;83.40
55121;DHT22;41019;48.512;9.036;2023-05-19T03:11:48;12.90;83.40
55121;DHT22;41019;48.512;9.036;2023-05-19T03:14:14;12.90;83.40
55121;DHT22;41019;48.512;9.036;2023-05-19T03:19:08;12.90;83.50
55121;DHT22;41019;48.512;9.036;2023-05-19T03:21:34;12.90;83.60
55121;DHT22;41019;48.512;9.036;2023-05-19T03:24:00;12.90;83.80
55121;DHT22;41019;48.512;9.036;2023-05-19T03:26:27;12.90;83.50
55121;DHT22;41019;48.512;9.036;2023-05-19T03:28:55;12.80;83.60
55121;DHT22;41019;48.512;9.036;2023-05-19T03:31:20;12.80;83.70
55121;DHT22;41019;48.512;9.036;2023-05-19T03:33:46;12.80;83.80
55121;DHT22;41019;48.512;9.036;2023-05-19T03:36:12;12.80;83.70
55121;DHT22;41019;48.512;9.036;2023-05-19T03:38:38;12.80;83.70
55121;DHT22;41019;48.512;9.036;2023-05-19T03:41:04;12.80;83.50
55121;DHT22;41019;48.512;9.036;2023-05-19T03:43:30;12.70;83.40
55121;DHT22;41019;48.512;9.036;2023-05-19T03:46:01;12.70;83.60
55121;DHT22;41019;48.512;9.036;2023-05-19T03:48:45;12.80;83.80
55121;DHT22;41019;48.512;9.036;2023-05-19T03:51:26;12.70;83.80
55121;DHT22;41019;48.512;9.036;2023-05-19T03:53:58;12.70;84.00
55121;DHT22;41019;48.512;9.036;2023-05-19T03:56:24;12.70;84.00
55121;DHT22;41019;48.512;9.036;2023-05-19T03:58:52;12.70;83.80
55121;DHT22;41019;48.512;9.036;2023-05-19T04:01:20;12.80;83.80
55121;DHT22;41019;48.512;9.036;2023-05-19T04:03:46;12.70;83.50
55121;DHT22;41019;48.512;9.036;2023-05-19T04:06:11;12.70;83.70
55121;DHT22;41019;48.512;9.036;2023-05-19T04:08:38;12.70;83.60
55121;DHT22;41019;48.512;9.036;2023-05-19T04:11:04;12.70;83.60
55121;DHT22;41019;48.512;9.036;2023-05-19T04:13:33;12.70;83.50
55121;DHT22;41019;48.512;9.036;2023-05-19T04:15:59;12.70;83.40
55121;DHT22;41019;48.512;9.036;2023-05-19T04:18:25;12.70;83.60
55121;DHT22;41019;48.512;9.036;2023-05-19T04:20:51;12.70;83.40
55121;DHT22;41019;48.512;9.036;2023-05-19T04:23:18;12.70;83.50
55121;DHT22;41019;48.512;9.036;2023-05-19T04:25:44;12.70;83.50
55121;DHT22;41019;48.512;9.036;2023-05-19T04:28:13;12.70;83.40
55121;DHT22;41019;48.512;9.036;2023-05-19T04:30:39;12.70;83.60
55121;DHT22;41019;48.512;9.036;2023-05-19T04:33:07;12.70;83.50
55121;DHT22;41019;48.512;9.036;2023-05-19T04:35:33;12.70;83.60
55121;DHT22;41019;48.512;9.036;2023-05-19T04:38:00;12.70;83.20
55121;DHT22;41019;48.512;9.036;2023-05-19T04:40:30;12.70;83.30
55121;DHT22;41019;48.512;9.036;2023-05-19T04:42:56;12.70;83.30
55121;DHT22;41019;48.512;9.036;2023-05-19T04:45:24;12.80;83.20
55121;DHT22;41019;48.512;9.036;2023-05-19T04:47:56;12.80;83.40
55121;DHT22;41019;48.512;9.036;2023-05-19T04:50:23;12.80;83.60
55121;DHT22;41019;48.512;9.036;2023-05-19T04:52:50;12.80;83.40
55121;DHT22;41019;48.512;9.036;2023-05-19T04:55:15;12.90;83.70
55121;DHT22;41019;48.512;9.036;2023-05-19T04:57:42;12.90;83.80
55121;DHT22;41019;48.512;9.036;2023-05-19T05:00:09;12.90;83.40
55121;DHT22;41019;48.512;9.036;2023-05-19T05:02:45;12.90;83.30
55121;DHT22;41019;48.512;9.036;2023-05-19T05:05:12;12.90;83.60
55121;DHT22;41019;48.512;9.036;2023-05-19T05:07:37;13.00;83.40
55121;DHT22;41019;48.512;9.036;2023-05-19T05:10:04;13.00;83.20
55121;DHT22;41019;48.512;9.036;2023-05-19T05:12:31;13.10;83.30
55121;DHT22;41019;48.512;9.036;2023-05-19T05:14:57;13.10;82.90
55121;DHT22;41019;48.512;9.036;2023-05-19T05:17:23;13.20;83.20
55121;DHT22;41019;48.512;9.036;2023-05-19T05:19:50;13.20;83.30
55121;DHT22;41019;48.512;9.036;2023-05-19T05:22:16;13.30;83.20
55121;DHT22;41019;48.512;9.036;2023-05-19T05:24:42;13.30;82.40
55121;DHT22;41019;48.512;9.036;2023-05-19T05:27:08;13.40;82.40
55121;DHT22;41019;48.512;9.036;2023-05-19T05:29:35;13.40;82.50
55121;DHT22;41019;48.512;9.036;2023-05-19T05:32:03;13.40;82.50
55121;DHT22;41019;48.512;9.036;2023-05-19T05:34:29;13.50;81.90
55121;DHT22;41019;48.512;9.036;2023-05-19T05:36:55;13.40;81.90
55121;DHT22;41019;48.512;9.036;2023-05-19T05:39:21;13.50;82.10
55121;DHT22;41019;48.512;9.036;2023-05-19T05:41:49;13.50;81.70
55121;DHT22;41019;48.512;9.036;2023-05-19T05:44:16;13.60;81.40
55121;DHT22;41019;48.512;9.036;2023-05-19T05:46:43;13.70;82.60
55121;DHT22;41019;48.512;9.036;2023-05-19T05:49:09;13.70;81.50
55121;DHT22;41019;48.512;9.036;2023-05-19T05:51:39;13.80;81.70
55121;DHT22;41019;48.512;9.036;2023-05-19T05:54:09;13.80;81.40
55121;DHT22;41019;48.512;9.036;2023-05-19T05:56:40;13.90;80.70
55121;DHT22;41019;48.512;9.036;2023-05-19T05:59:07;13.80;80.50
55121;DHT22;41019;48.512;9.036;2023-05-19T06:01:33;14.00;80.60
55121;DHT22;41019;48.512;9.036;2023-05-19T06:04:00;14.00;80.30
55121;DHT22;41019;48.512;9.036;2023-05-19T06:06:27;14.00;79.20
55121;DHT22;41019;48.512;9.036;2023-05-19T06:08:54;14.10;79.70
55121;DHT22;41019;48.512;9.036;2023-05-19T06:11:31;14.20;79.50
55121;DHT22;41019;48.512;9.036;2023-05-19T06:13:58;14.20;79.00
55121;DHT22;41019;48.512;9.036;2023-05-19T06:16:42;14.30;79.00
55121;DHT22;41019;48.512;9.036;2023-05-19T06:19:08;14.30;79.00
55121;DHT22;41019;48.512;9.036;2023-05-19T06:21:35;14.20;78.30
55121;DHT22;41019;48.512;9.036;2023-05-19T06:24:01;14.20;77.70
55121;DHT22;41019;48.512;9.036;2023-05-19T06:26:27;14.30;77.70
55121;DHT22;41019;48.512;9.036;2023-05-19T06:28:53;14.40;78.70
55121;DHT22;41019;48.512;9.036;2023-05-19T06:31:19;14.40;78.40
55121;DHT22;41019;48.512;9.036;2023-05-19T06:33:51;14.60;79.20
55121;DHT22;41019;48.512;9.036;2023-05-19T06:36:19;14.70;77.70
55121;DHT22;41019;48.512;9.036;2023-05-19T06:38:46;14.80;77.60
55121;DHT22;41019;48.512;9.036;2023-05-19T06:41:12;14.90;77.40
55121;DHT22;41019;48.512;9.036;2023-05-19T06:43:38;15.00;76.60
55121;DHT22;41019;48.512;9.036;2023-05-19T06:46:04;15.10;77.00
55121;DHT22;41019;48.512;9.036;2023-05-19T06:48:31;15.20;77.10
55121;DHT22;41019;48.512;9.036;2023-05-19T06:50:58;15.40;77.60
55121;DHT22;41019;48.512;9.036;2023-05-19T06:53:24;15.40;76.30
55121;DHT22;41019;48.512;9.036;2023-05-19T06:55:52;15.40;76.10
55121;DHT22;41019;48.512;9.036;2023-05-19T06:58:20;15.50;76.60
55121;DHT22;41019;48.512;9.036;2023-05-19T07:00:46;15.60;75.70
55121;DHT22;41019;48.512;9.036;2023-05-19T07:03:14;15.50;75.50
55121;DHT22;41019;48.512;9.036;2023-05-19T07:05:41;15.60;75.80
55121;DHT22;41019;48.512;9.036;2023-05-19T07:08:06;15.70;75.70
55121;DHT22;41019;48.512;9.036;2023-05-19T07:10:34;15.70;75.50
55121;DHT22;41019;48.512;9.036;2023-05-19T07:13:01;15.70;75.20
55121;DHT22;41019;48.512;9.036;2023-05-19T07:15:31;15.30;75.30
55121;DHT22;41019;48.512;9.036;2023-05-19T07:17:58;15.40;75.70
55121;DHT22;41019;48.512;9.036;2023-05-19T07:20:24;15.40;76.10
55121;DHT22;41019;48.512;9.036;2023-05-19T07:22:50;15.10;75.60
55121;DHT22;41019;48.512;9.036;2023-05-19T07:25:15;15.00;75.90
55121;DHT22;41019;48.512;9.036;2023-05-19T07:27:45;15.10;76.60
55121;DHT22;41019;48.512;9.036;2023-05-19T07:30:11;15.00;76.20
55121;DHT22;41019;48.512;9.036;2023-05-19T07:32:37;14.90;76.30
55121;DHT22;41019;48.512;9.036;2023-05-19T07:35:04;14.90;76.50
55121;DHT22;41019;48.512;9.036;2023-05-19T07:37:30;14.80;76.90
55121;DHT22;41019;48.512;9.036;2023-05-19T07:39:56;14.90;77.60
55121;DHT22;41019;48.512;9.036;2023-05-19T07:42:22;14.70;76.20
55121;DHT22;41019;48.512;9.036;2023-05-19T07:44:48;14.80;76.70
55121;DHT22;41019;48.512;9.036;2023-05-19T07:47:14;14.90;77.50
55121;DHT22;41019;48.512;9.036;2023-05-19T07:49:40;14.90;77.50
55121;DHT22;41019;48.512;9.036;2023-05-19T07:52:06;14.90;77.70
55121;DHT22;41019;48.512;9.036;2023-05-19T07:54:31;14.90;77.80
55121;DHT22;41019;48.512;9.036;2023-05-19T07:56:57;15.00;77.50
55121;DHT22;41019;48.512;9.036;2023-05-19T07:59:23;14.90;77.10
55121;DHT22;41019;48.512;9.036;2023-05-19T08:01:49;14.90;77.80
55121;DHT22;41019;48.512;9.036;2023-05-19T08:04:16;14.90;77.20
55121;DHT22;41019;48.512;9.036;2023-05-19T08:06:42;14.90;77.10
55121;DHT22;41019;48.512;9.036;2023-05-19T08:09:09;14.90;77.20
55121;DHT22;41019;48.512;9.036;2023-05-19T08:11:35;14.90;77.20
55121;DHT22;41019;48.512;9.036;2023-05-19T08:14:01;14.90;77.20
55121;DHT22;41019;48.512;9.036;2023-05-19T08:16:27;14.90;77.40
55121;DHT22;41019;48.512;9.036;2023-05-19T08:18:53;15.00;77.30
55121;DHT22;41019;48.512;9.036;2023-05-19T08:21:20;14.90;76.80
55121;DHT22;41019;48.512;9.036;2023-05-19T08:23:46;14.90;76.60
55121;DHT22;41019;48.512;9.036;2023-05-19T08:26:12;15.00;76.40
55121;DHT22;41019;48.512;9.036;2023-05-19T08:28:38;15.10;76.70
55121;DHT22;41019;48.512;9.036;2023-05-19T08:31:04;15.30;77.10
55121;DHT22;41019;48.512;9.036;2023-05-19T08:33:29;15.30;76.20
55121;DHT22;41019;48.512;9.036;2023-05-19T08:35:55;15.50;76.00
55121;DHT22;41019;48.512;9.036;2023-05-19T08:38:24;15.70;75.60
55121;DHT22;41019;48.512;9.036;2023-05-19T08:40:50;15.70;75.50
55121;DHT22;41019;48.512;9.036;2023-05-19T08:43:16;15.70;74.40
55121;DHT22;41019;48.512;9.036;2023-05-19T08:45:44;15.80;74.40
55121;DHT22;41019;48.512;9.036;2023-05-19T08:48:15;16.00;74.10
55121;DHT22;41019;48.512;9.036;2023-05-19T08:50:50;16.10;74.10
55121;DHT22;41019;48.512;9.036;2023-05-19T08:53:26;16.20;74.20
55121;DHT22;41019;48.512;9.036;2023-05-19T08:56:11;16.10;74.10
55121;DHT22;41019;48.512;9.036;2023-05-19T08:58:40;16.20;74.40
55121;DHT22;41019;48.512;9.036;2023-05-19T09:01:15;16.10;73.40
55121;DHT22;41019;48.512;9.036;2023-05-19T09:03:46;16.10;73.90
55121;DHT22;41019;48.512;9.036;2023-05-19T09:06:14;16.00;73.90
55121;DHT22;41019;48.512;9.036;2023-05-19T09:08:41;15.90;73.70
55121;DHT22;41019;48.512;9.036;2023-05-19T09:11:11;15.90;74.40
55121;DHT22;41019;48.512;9.036;2023-05-19T09:13:37;15.70;74.00
55121;DHT22;41019;48.512;9.036;2023-05-19T09:16:03;15.60;74.60
55121;DHT22;41019;48.512;9.036;2023-05-19T09:18:29;15.50;75.10
55121;DHT22;41019;48.512;9.036;2023-05-19T09:20:59;15.60;75.30
55121;DHT22;41019;48.512;9.036;2023-05-19T09:23:33;15.70;74.60
55121;DHT22;41019;48.512;9.036;2023-05-19T09:26:04;15.80;74.20
55121;DHT22;41019;48.512;9.036;2023-05-19T09:28:33;15.80;74.70
55121;DHT22;41019;48.512;9.036;2023-05-19T09:31:10;15.90;74.30
55121;DHT22;41019;48.512;9.036;2023-05-19T09:33:37;15.90;73.90
55121;DHT22;41019;48.512;9.036;2023-05-19T09:36:05;16.00;74.60
55121;DHT22;41019;48.512;9.036;2023-05-19T09:38:34;16.00;74.10
55121;DHT22;41019;48.512;9.036;2023-05-19T09:41:01;16.00;74.00
55121;DHT22;41019;48.512;9.036;2023-05-19T09:43:31;15.90;73.50
55121;DHT22;41019;48.512;9.036;2023-05-19T09:46:06;15.90;73.80
55121;DHT22;41019;48.512;9.036;2023-05-19T09:48:33;16.00;74.10
55121;DHT22;41019;48.512;9.036;2023-05-19T09:51:00;15.90;73.90
55121;DHT22;41019;48.512;9.036;2023-05-19T09:53:28;15.80;73.20
55121;DHT22;41019;48.512;9.036;2023-05-19T09:55:56;15.70;73.30
55121;DHT22;41019;48.512;9.036;2023-05-19T09:58:25;15.70;73.50
55121;DHT22;41019;48.512;9.036;2023-05-19T10:00:52;15.70;73.90
55121;DHT22;41019;48.512;9.036;2023-05-19T10:03:22;15.70;74.00
55121;DHT22;41019;48.512;9.036;2023-05-19T10:05:49;15.70;74.40
55121;DHT22;41019;48.512;9.036;2023-05-19T10:08:16;15.70;74.40
55121;DHT22;41019;48.512;9.036;2023-05-19T10:10:44;15.80;74.00
55121;DHT22;41019;48.512;9.036;2023-05-19T10:13:11;15.60;73.10
55121;DHT22;41019;48.512;9.036;2023-05-19T10:15:40;15.60;73.80
55121;DHT22;41019;48.512;9.036;2023-05-19T10:18:08;15.70;74.50
55121;DHT22;41019;48.512;9.036;2023-05-19T10:20:35;15.70;74.10
55121;DHT22;41019;48.512;9.036;2023-05-19T10:23:02;15.70;74.20
55121;DHT22;41019;48.512;9.036;2023-05-19T10:25:32;15.70;73.90
55121;DHT22;41019;48.512;9.036;2023-05-19T10:28:06;15.70;74.20
55121;DHT22;41019;48.512;9.036;2023-05-19T10:30:40;15.80;74.00
55121;DHT22;41019;48.512;9.036;2023-05-19T10:33:14;15.80;73.80
55121;DHT22;41019;48.512;9.036;2023-05-19T10:35:58;15.80;73.30
55121;DHT22;41019;48.512;9.036;2023-05-19T10:38:47;15.90;73.20
55121;DHT22;41019;48.512;9.036;2023-05-19T10:41:36;15.70;73.10
55121;DHT22;41019;48.512;9.036;2023-05-19T10:47:07;15.80;74.10
55121;DHT22;41019;48.512;9.036;2023-05-19T10:49:36;15.80;73.40
55121;DHT22;41019;48.512;9.036;2023-05-19T10:52:03;15.90;73.70
55121;DHT22;41019;48.512;9.036;2023-05-19T10:54:43;15.90;73.90
55121;DHT22;41019;48.512;9.036;2023-05-19T10:57:15;15.80;73.20
55121;DHT22;41019;48.512;9.036;2023-05-19T10:59:41;15.90;73.40
55121;DHT22;41019;48.512;9.036;2023-05-19T11:02:09;15.90;73.10
55121;DHT22;41019;48.512;9.036;2023-05-19T11:04:46;16.00;73.10
55121;DHT22;41019;48.512;9.036;2023-05-19T11:07:17;16.00;73.10
55121;DHT22;41019;48.512;9.036;2023-05-19T11:09:49;16.10;73.50
55121;DHT22;41019;48.512;9.036;2023-05-19T11:12:19;16.20;73.30
55121;DHT22;41019;48.512;9.036;2023-05-19T11:14:46;16.30;73.10
55121;DHT22;41019;48.512;9.036;2023-05-19T11:17:14;16.10;72.80
55121;DHT22;41019;48.512;9.036;2023-05-19T11:19:54;16.20;73.00
55121;DHT22;41019;48.512;9.036;2023-05-19T11:22:25;16.30;72.90
55121;DHT22;41019;48.512;9.036;2023-05-19T11:24:54;16.10;72.80
55121;DHT22;41019;48.512;9.036;2023-05-19T11:27:31;16.10;73.00
55121;DHT22;41019;48.512;9.036;2023-05-19T11:30:08;16.20;72.50
55121;DHT22;41019;48.512;9.036;2023-05-19T11:32:38;16.20;72.60
55121;DHT22;41019;48.512;9.036;2023-05-19T11:35:07;16.20;72.30
55121;DHT22;41019;48.512;9.036;2023-05-19T11:37:34;16.30;72.20
55121;DHT22;41019;48.512;9.036;2023-05-19T11:40:05;16.20;72.00
55121;DHT22;41019;48.512;9.036;2023-05-19T11:42:32;16.30;72.50
55121;DHT22;41019;48.512;9.036;2023-05-19T11:44:59;16.30;72.10
55121;DHT22;41019;48.512;9.036;2023-05-19T11:47:26;16.30;72.00
55121;DHT22;41019;48.512;9.036;2023-05-19T11:49:53;16.20;71.90
55121;DHT22;41019;48.512;9.036;2023-05-19T11:52:24;16.20;72.50
55121;DHT22;41019;48.512;9.036;2023-05-19T11:54:50;16.00;72.50
55121;DHT22;41019;48.512;9.036;2023-05-19T11:57:16;16.00;71.90
55121;DHT22;41019;48.512;9.036;2023-05-19T11:59:42;16.00;72.00
55121;DHT22;41019;48.512;9.036;2023-05-19T12:02:23;16.00;72.80
55121;DHT22;41019;48.512;9.036;2023-05-19T12:04:53;16.20;72.20
55121;DHT22;41019;48.512;9.036;2023-05-19T12:07:22;16.30;72.60
55121;DHT22;41019;48.512;9.036;2023-05-19T12:09:49;16.30;72.00
55121;DHT22;41019;48.512;9.036;2023-05-19T12:12:18;16.40;72.00
55121;DHT22;41019;48.512;9.036;2023-05-19T12:14:50;16.40;72.60
55121;DHT22;41019;48.512;9.036;2023-05-19T12:17:18;16.40;71.50
55121;DHT22;41019;48.512;9.036;2023-05-19T12:19:48;16.40;72.10
55121;DHT22;41019;48.512;9.036;2023-05-19T12:22:15;16.50;71.70
55121;DHT22;41019;48.512;9.036;2023-05-19T12:24:43;16.40;71.50
55121;DHT22;41019;48.512;9.036;2023-05-19T12:27:15;16.40;71.40
55121;DHT22;41019;48.512;9.036;2023-05-19T12:29:42;16.30;71.30
55121;DHT22;41019;48.512;9.036;2023-05-19T12:32:08;16.30;72.30
55121;DHT22;41019;48.512;9.036;2023-05-19T12:34:35;16.30;71.90
55121;DHT22;41019;48.512;9.036;2023-05-19T12:37:02;16.20;72.40
55121;DHT22;41019;48.512;9.036;2023-05-19T12:39:29;16.20;72.10
55121;DHT22;41019;48.512;9.036;2023-05-19T12:42:07;16.10;72.00
55121;DHT22;41019;48.512;9.036;2023-05-19T12:44:46;16.20;72.20
55121;DHT22;41019;48.512;9.036;2023-05-19T12:47:16;16.20;72.40
55121;DHT22;41019;48.512;9.036;2023-05-19T12:50:16;16.20;72.10
55121;DHT22;41019;48.512;9.036;2023-05-19T12:52:44;16.30;72.50
55121;DHT22;41019;48.512;9.036;2023-05-19T12:55:11;16.40;71.40
55121;DHT22;41019;48.512;9.036;2023-05-19T12:57:39;16.40;71.20
55121;DHT22;41019;48.512;9.036;2023-05-19T13:00:13;16.40;71.60
55121;DHT22;41019;48.512;9.036;2023-05-19T13:03:05;16.30;71.40
55121;DHT22;41019;48.512;9.036;2023-05-19T13:05:33;16.40;72.10
55121;DHT22;41019;48.512;9.036;2023-05-19T13:08:05;16.50;72.20
55121;DHT22;41019;48.512;9.036;2023-05-19T13:10:33;16.60;71.70
55121;DHT22;41019;48.512;9.036;2023-05-19T13:13:00;16.60;71.70
55121;DHT22;41019;48.512;9.036;2023-05-19T13:15:28;16.60;71.00
55121;DHT22;41019;48.512;9.036;2023-05-19T13:17:56;16.60;71.70
55121;DHT22;41019;48.512;9.036;2023-05-19T13:20:23;16.60;71.30
55121;DHT22;41019;48.512;9.036;2023-05-19T13:22:49;16.70;71.10
55121;DHT22;41019;48.512;9.036;2023-05-19T13:25:15;16.60;70.90
55121;DHT22;41019;48.512;9.036;2023-05-19T13:27:45;16.70;71.10
55121;DHT22;41019;48.512;9.036;2023-05-19T13:30:12;16.60;71.30
55121;DHT22;41019;48.512;9.036;2023-05-19T13:32:38;16.60;71.40
55121;DHT22;41019;48.512;9.036;2023-05-19T13:35:04;16.60;71.90
55121;DHT22;41019;48.512;9.036;2023-05-19T13:37:30;16.60;71.90
55121;DHT22;41019;48.512;9.036;2023-05-19T13:39:56;16.50;70.90
55121;DHT22;41019;48.512;9.036;2023-05-19T13:42:24;16.40;71.20
55121;DHT22;41019;48.512;9.036;2023-05-19T13:44:54;16.40;71.60
55121;DHT22;41019;48.512;9.036;2023-05-19T13:47:23;16.40;72.10
55121;DHT22;41019;48.512;9.036;2023-05-19T13:49:50;16.50;71.90
55121;DHT22;41019;48.512;9.036;2023-05-19T13:52:16;16.60;71.70
55121;DHT22;41019;48.512;9.036;2023-05-19T13:54:42;16.50;71.40
55121;DHT22;41019;48.512;9.036;2023-05-19T13:57:08;16.50;71.10
55121;DHT22;41019;48.512;9.036;2023-05-19T13:59:34;16.60;71.50
55121;DHT22;41019;48.512;9.036;2023-05-19T14:02:01;16.70;71.20
55121;DHT22;41019;48.512;9.036;2023-05-19T14:04:30;16.60;70.70
55121;DHT22;41019;48.512;9.036;2023-05-19T14:06:56;16.60;71.10
55121;DHT22;41019;48.512;9.036;2023-05-19T14:09:23;16.70;71.60
55121;DHT22;41019;48.512;9.036;2023-05-19T14:11:49;16.70;71.40
55121;DHT22;41019;48.512;9.036;2023-05-19T14:14:15;16.90;72.20
55121;DHT22;41019;48.512;9.036;2023-05-19T14:16:42;17.00;71.80
55121;DHT22;41019;48.512;9.036;2023-05-19T14:19:08;17.10;71.20
55121;DHT22;41019;48.512;9.036;2023-05-19T14:21:34;17.20;71.00
55121;DHT22;41019;48.512;9.036;2023-05-19T14:24:00;17.20;70.20
55121;DHT22;41019;48.512;9.036;2023-05-19T14:26:26;17.10;70.90
55121;DHT22;41019;48.512;9.036;2023-05-19T14:28:52;17.10;70.60
55121;DHT22;41019;48.512;9.036;2023-05-19T14:31:18;17.10;71.20
55121;DHT22;41019;48.512;9.036;2023-05-19T14:33:44;17.00;70.30
55121;DHT22;41019;48.512;9.036;2023-05-19T14:36:09;17.00;70.40
55121;DHT22;41019;48.512;9.036;2023-05-19T14:38:35;17.00;70.80
55121;DHT22;41019;48.512;9.036;2023-05-19T14:41:01;17.10;71.40
55121;DHT22;41019;48.512;9.036;2023-05-19T14:43:27;17.00;70.60
55121;DHT22;41019;48.512;9.036;2023-05-19T14:45:53;17.00;71.10
55121;DHT22;41019;48.512;9.036;2023-05-19T14:48:19;17.00;71.50
55121;DHT22;41019;48.512;9.036;2023-05-19T14:50:48;17.00;71.10
55121;DHT22;41019;48.512;9.036;2023-05-19T14:53:14;16.90;70.60
55121;DHT22;41019;48.512;9.036;2023-05-19T14:55:41;16.90;70.50
55121;DHT22;41019;48.512;9.036;2023-05-19T14:58:08;16.90;71.10
55121;DHT22;41019;48.512;9.036;2023-05-19T15:00:34;16.90;71.20
55121;DHT22;41019;48.512;9.036;2023-05-19T15:03:01;16.90;71.10
55121;DHT22;41019;48.512;9.036;2023-05-19T15:05:26;16.80;71.00
55121;DHT22;41019;48.512;9.036;2023-05-19T15:07:52;16.60;70.60
55121;DHT22;41019;48.512;9.036;2023-05-19T15:10:18;16.50;70.90
55121;DHT22;41019;48.512;9.036;2023-05-19T15:12:47;16.40;71.60
55121;DHT22;41019;48.512;9.036;2023-05-19T15:15:13;16.30;71.60
55121;DHT22;41019;48.512;9.036;2023-05-19T15:17:42;16.40;72.00
55121;DHT22;41019;48.512;9.036;2023-05-19T15:20:10;16.50;72.10
55121;DHT22;41019;48.512;9.036;2023-05-19T15:22:36;16.50;71.60
55121;DHT22;41019;48.512;9.036;2023-05-19T15:25:02;16.50;72.50
55121;DHT22;41019;48.512;9.036;2023-05-19T15:27:28;16.40;72.20
55121;DHT22;41019;48.512;9.036;2023-05-19T15:29:54;16.50;71.80
55121;DHT22;41019;48.512;9.036;2023-05-19T15:32:20;16.50;71.90
55121;DHT22;41019;48.512;9.036;2023-05-19T15:34:45;16.50;71.70
55121;DHT22;41019;48.512;9.036;2023-05-19T15:37:11;16.50;71.40
55121;DHT22;41019;48.512;9.036;2023-05-19T15:39:37;16.40;71.40
55121;DHT22;41019;48.512;9.036;2023-05-19T15:42:03;16.40;72.10
55121;DHT22;41019;48.512;9.036;2023-05-19T15:44:29;16.50;71.80